GIA284 WIPP-WBGG
Flight info
| Callsign | GIA284 |
|---|---|
| Flight time | N/A |
| Altitude | 39000 |
| Route | TODAK W23 PNK R455 PAPSA PAPSA1A |
| Aircraft | B738/M-SDE2E3FGHIRWXY/LB1 |
Departure
| Time | 2026-04-21 13:18 |
|---|---|
| Airport | Sultan Mahmud Badaruddin II Airport (WIPP) |
Arrival
| Time | N/A |
|---|---|
| Airport | Kuching International Airport (WBGG) |
| Time | Latitude | Longitude | Altitude | Speed | Heading |
|---|---|---|---|---|---|
| 2026-04-21 13:10 | -2.89637 | 104.70499 | 25 ft | 0 kts | 23° |
| 2026-04-21 13:11 | -2.89645 | 104.70496 | 31 ft | 2 kts | 23° |
| 2026-04-21 13:11 | -2.89660 | 104.70489 | 29 ft | 2 kts | 24° |
| 2026-04-21 13:11 | -2.89675 | 104.70483 | 30 ft | 2 kts | 25° |
| 2026-04-21 13:11 | -2.89690 | 104.70476 | 30 ft | 2 kts | 27° |
| 2026-04-21 13:12 | -2.89704 | 104.70468 | 28 ft | 2 kts | 35° |
| 2026-04-21 13:12 | -2.89716 | 104.70456 | 31 ft | 2 kts | 84° |
| 2026-04-21 13:12 | -2.89715 | 104.70446 | 31 ft | 1 kts | 112° |
| 2026-04-21 13:12 | -2.89714 | 104.70445 | 31 ft | 0 kts | 112° |
| 2026-04-21 13:14 | -2.89717 | 104.70451 | 25 ft | 3 kts | 112° |
| 2026-04-21 13:14 | -2.89740 | 104.70507 | 25 ft | 13 kts | 112° |
| 2026-04-21 13:15 | -2.89758 | 104.70551 | 28 ft | 0 kts | 112° |
| 2026-04-21 13:15 | -2.89759 | 104.70553 | 28 ft | 2 kts | 116° |
| 2026-04-21 13:16 | -2.89798 | 104.70555 | 25 ft | 11 kts | 200° |
| 2026-04-21 13:16 | -2.89896 | 104.70566 | 21 ft | 18 kts | 119° |
| 2026-04-21 13:16 | -2.89947 | 104.70688 | 20 ft | 19 kts | 112° |
| 2026-04-21 13:16 | -2.89999 | 104.70810 | 19 ft | 19 kts | 112° |
| 2026-04-21 13:17 | -2.90050 | 104.70933 | 18 ft | 20 kts | 112° |
| 2026-04-21 13:17 | -2.90133 | 104.71047 | 20 ft | 21 kts | 161° |
| 2026-04-21 13:17 | -2.90234 | 104.70967 | 18 ft | 23 kts | 271° |
| 2026-04-21 13:17 | -2.90119 | 104.70676 | 20 ft | 85 kts | 293° |
| 2026-04-21 13:18 | -2.89778 | 104.69867 | 23 ft | 165 kts | 292° |
| 2026-04-21 13:18 | -2.89262 | 104.68713 | 654 ft | 186 kts | 295° |
| 2026-04-21 13:18 | -2.88757 | 104.67530 | 1676 ft | 196 kts | 294° |
| 2026-04-21 13:18 | -2.88221 | 104.66164 | 2071 ft | 225 kts | 294° |
| 2026-04-21 13:19 | -2.87185 | 104.64960 | 2500 ft | 239 kts | 332° |
| 2026-04-21 13:19 | -2.86551 | 104.64695 | 2630 ft | 251 kts | 347° |
| 2026-04-21 13:19 | -2.84790 | 104.64834 | 3232 ft | 264 kts | 22° |
| 2026-04-21 13:19 | -2.83224 | 104.65803 | 4137 ft | 267 kts | 39° |
| 2026-04-21 13:20 | -2.81811 | 104.67028 | 4706 ft | 270 kts | 43° |
| 2026-04-21 13:20 | -2.80715 | 104.68043 | 4951 ft | 272 kts | 43° |
| 2026-04-21 13:20 | -2.80256 | 104.68471 | 4970 ft | 272 kts | 43° |
| 2026-04-21 13:20 | -2.78867 | 104.69759 | 4991 ft | 273 kts | 43° |
| 2026-04-21 13:21 | -2.77461 | 104.71046 | 5029 ft | 276 kts | 42° |
| 2026-04-21 13:21 | -2.76028 | 104.72340 | 5630 ft | 278 kts | 42° |
| 2026-04-21 13:21 | -2.74590 | 104.73627 | 6592 ft | 278 kts | 41° |
| 2026-04-21 13:21 | -2.73141 | 104.74916 | 7433 ft | 281 kts | 41° |
| 2026-04-21 13:22 | -2.71670 | 104.76219 | 8235 ft | 285 kts | 41° |
| 2026-04-21 13:22 | -2.70176 | 104.77539 | 9060 ft | 288 kts | 41° |
| 2026-04-21 13:22 | -2.68660 | 104.78877 | 9857 ft | 293 kts | 41° |
| 2026-04-21 13:22 | -2.67114 | 104.80241 | 10458 ft | 304 kts | 41° |
| 2026-04-21 13:23 | -2.65459 | 104.81700 | 10631 ft | 329 kts | 41° |
| 2026-04-21 13:23 | -2.63683 | 104.83265 | 10898 ft | 348 kts | 41° |
| 2026-04-21 13:23 | -2.61847 | 104.84883 | 11467 ft | 355 kts | 41° |
| 2026-04-21 13:23 | -2.60093 | 104.86620 | 12186 ft | 357 kts | 54° |
| 2026-04-21 13:24 | -2.58980 | 104.88832 | 12869 ft | 360 kts | 74° |
| 2026-04-21 13:24 | -2.58529 | 104.91302 | 13563 ft | 362 kts | 82° |
| 2026-04-21 13:24 | -2.58199 | 104.93813 | 14168 ft | 365 kts | 83° |
| 2026-04-21 13:24 | -2.57892 | 104.96314 | 14738 ft | 369 kts | 83° |
| 2026-04-21 13:25 | -2.57576 | 104.98868 | 15310 ft | 372 kts | 83° |
| 2026-04-21 13:25 | -2.57248 | 105.01446 | 15892 ft | 375 kts | 83° |
| 2026-04-21 13:25 | -2.56908 | 105.04043 | 16473 ft | 378 kts | 82° |
| 2026-04-21 13:25 | -2.56560 | 105.06656 | 17034 ft | 381 kts | 82° |
| 2026-04-21 13:26 | -2.56205 | 105.09296 | 17584 ft | 385 kts | 82° |
| 2026-04-21 13:26 | -2.55845 | 105.11955 | 18135 ft | 388 kts | 82° |
| 2026-04-21 13:26 | -2.55480 | 105.14640 | 18595 ft | 391 kts | 82° |
| 2026-04-21 13:26 | -2.55113 | 105.17347 | 19037 ft | 394 kts | 82° |
| 2026-04-21 13:27 | -2.54742 | 105.20074 | 19473 ft | 398 kts | 82° |
| 2026-04-21 13:27 | -2.54369 | 105.22824 | 19915 ft | 401 kts | 82° |
| 2026-04-21 13:27 | -2.53993 | 105.25593 | 20354 ft | 404 kts | 82° |
| 2026-04-21 13:27 | -2.53614 | 105.28387 | 20780 ft | 407 kts | 82° |
| 2026-04-21 13:28 | -2.53231 | 105.31202 | 21206 ft | 410 kts | 82° |
| 2026-04-21 13:28 | -2.52847 | 105.34031 | 21621 ft | 412 kts | 82° |
| 2026-04-21 13:28 | -2.52460 | 105.36885 | 22018 ft | 415 kts | 82° |
| 2026-04-21 13:29 | -2.50688 | 105.42347 | 22782 ft | 421 kts | 64° |
| 2026-04-21 13:29 | -2.49410 | 105.44986 | 23180 ft | 424 kts | 64° |
| 2026-04-21 13:29 | -2.48113 | 105.47642 | 23540 ft | 426 kts | 64° |
| 2026-04-21 13:29 | -2.46816 | 105.50319 | 23846 ft | 429 kts | 64° |
| 2026-04-21 13:30 | -2.45525 | 105.53010 | 24160 ft | 430 kts | 64° |
| 2026-04-21 13:30 | -2.44237 | 105.55720 | 24480 ft | 432 kts | 65° |
| 2026-04-21 13:30 | -2.42950 | 105.58442 | 24782 ft | 434 kts | 65° |
| 2026-04-21 13:30 | -2.41662 | 105.61177 | 25084 ft | 436 kts | 65° |
| 2026-04-21 13:31 | -2.40368 | 105.63928 | 25389 ft | 438 kts | 65° |
| 2026-04-21 13:31 | -2.39069 | 105.66690 | 25684 ft | 440 kts | 65° |
| 2026-04-21 13:31 | -2.37764 | 105.69465 | 25979 ft | 442 kts | 65° |
| 2026-04-21 13:31 | -2.36452 | 105.72252 | 26260 ft | 444 kts | 65° |
| 2026-04-21 13:32 | -2.35137 | 105.75046 | 26537 ft | 446 kts | 65° |
| 2026-04-21 13:32 | -2.34158 | 105.77151 | 30386 ft | 122 kts | 66° |
| 2026-04-21 13:32 | -2.33892 | 105.77811 | 33555 ft | 105 kts | 71° |
| 2026-04-21 13:32 | -2.33672 | 105.78593 | 30968 ft | 160 kts | 84° |
| 2026-04-21 13:33 | -2.33942 | 105.80504 | 25484 ft | 412 kts | 101° |
| 2026-04-21 13:33 | -2.33995 | 105.83513 | 24919 ft | 431 kts | 84° |
| 2026-04-21 13:33 | -2.33862 | 105.86538 | 24045 ft | 442 kts | 81° |
| 2026-04-21 13:33 | -2.33483 | 105.89644 | 23507 ft | 449 kts | 83° |
| 2026-04-21 13:34 | -2.31509 | 105.92166 | 20572 ft | 494 kts | 60° |
| 2026-04-21 13:34 | -2.29983 | 105.94385 | 17151 ft | 396 kts | 54° |
| 2026-04-21 13:34 | -2.28902 | 105.96211 | 7409 ft | 148 kts | 64° |
| 2026-04-21 13:34 | -2.27121 | 105.97108 | 547 ft | 399 kts | 353° |
| 2026-04-21 13:35 | -2.26334 | 105.95200 | 586 ft | 338 kts | 250° |
| 2026-04-21 13:35 | -2.27059 | 105.93133 | 869 ft | 292 kts | 255° |
| 2026-04-21 13:35 | -2.27632 | 105.91308 | 415 ft | 264 kts | 259° |
| 2026-04-21 13:35 | -2.27732 | 105.89662 | 723 ft | 205 kts | 258° |
| 2026-04-21 13:36 | -2.28126 | 105.88396 | 795 ft | 185 kts | 262° |
| 2026-04-21 13:36 | -2.28170 | 105.87022 | 1294 ft | 200 kts | 277° |
| 2026-04-21 13:36 | -2.27986 | 105.85622 | 272 ft | 214 kts | 277° |
| 2026-04-21 13:36 | -2.27907 | 105.84253 | 96 ft | 182 kts | 271° |
| 2026-04-21 13:37 | -2.27878 | 105.83148 | 21 ft | 104 kts | 271° |
| 2026-04-21 13:37 | -2.27874 | 105.82961 | 20 ft | 0 kts | 271° |
| 2026-04-21 13:37 | -2.27873 | 105.82958 | 19 ft | 1 kts | 286° |
| 2026-04-21 13:38 | -2.27844 | 105.82957 | 19 ft | 21 kts | 14° |
| 2026-04-21 13:38 | -2.27664 | 105.83351 | 29 ft | 110 kts | 95° |
| 2026-04-21 13:38 | -2.27862 | 105.84009 | 243 ft | 143 kts | 107° |